sensor_id;sensor_type;location;lat;lon;timestamp;temperature;humidity
72865;DHT22;61000;48.120;11.548;2023-03-23T00:01:24;10.90;93.80
72865;DHT22;61000;48.120;11.548;2023-03-23T00:03:56;10.90;93.90
72865;DHT22;61000;48.120;11.548;2023-03-23T00:06:24;10.90;94.20
72865;DHT22;61000;48.120;11.548;2023-03-23T00:08:53;10.90;94.20
72865;DHT22;61000;48.120;11.548;2023-03-23T00:11:28;11.00;94.20
72865;DHT22;61000;48.120;11.548;2023-03-23T00:13:56;10.90;94.30
72865;DHT22;61000;48.120;11.548;2023-03-23T00:16:28;10.90;94.40
72865;DHT22;61000;48.120;11.548;2023-03-23T00:18:59;10.90;94.50
72865;DHT22;61000;48.120;11.548;2023-03-23T00:21:29;10.90;94.60
72865;DHT22;61000;48.120;11.548;2023-03-23T00:24:02;10.90;94.70
72865;DHT22;61000;48.120;11.548;2023-03-23T00:26:30;10.90;94.80
72865;DHT22;61000;48.120;11.548;2023-03-23T00:28:59;10.90;94.90
72865;DHT22;61000;48.120;11.548;2023-03-23T00:31:27;10.90;94.90
72865;DHT22;61000;48.120;11.548;2023-03-23T00:33:57;10.90;95.00
72865;DHT22;61000;48.120;11.548;2023-03-23T00:36:26;10.90;94.90
72865;DHT22;61000;48.120;11.548;2023-03-23T00:38:54;10.90;95.00
72865;DHT22;61000;48.120;11.548;2023-03-23T00:41:23;10.90;95.20
72865;DHT22;61000;48.120;11.548;2023-03-23T00:43:54;10.90;95.10
72865;DHT22;61000;48.120;11.548;2023-03-23T00:46:22;10.90;95.20
72865;DHT22;61000;48.120;11.548;2023-03-23T00:48:49;10.90;95.10
72865;DHT22;61000;48.120;11.548;2023-03-23T00:51:16;10.90;95.10
72865;DHT22;61000;48.120;11.548;2023-03-23T00:53:44;10.90;95.20
72865;DHT22;61000;48.120;11.548;2023-03-23T00:56:11;10.90;95.20
72865;DHT22;61000;48.120;11.548;2023-03-23T00:58:38;10.90;95.20
72865;DHT22;61000;48.120;11.548;2023-03-23T01:01:07;10.90;95.20
72865;DHT22;61000;48.120;11.548;2023-03-23T01:03:34;10.90;95.20
72865;DHT22;61000;48.120;11.548;2023-03-23T01:06:06;10.90;95.20
72865;DHT22;61000;48.120;11.548;2023-03-23T01:08:34;10.90;95.30
72865;DHT22;61000;48.120;11.548;2023-03-23T01:11:03;10.90;95.30
72865;DHT22;61000;48.120;11.548;2023-03-23T01:13:31;10.90;95.30
72865;DHT22;61000;48.120;11.548;2023-03-23T01:15:58;10.90;95.40
72865;DHT22;61000;48.120;11.548;2023-03-23T01:18:26;10.90;95.40
72865;DHT22;61000;48.120;11.548;2023-03-23T01:20:53;10.80;95.40
72865;DHT22;61000;48.120;11.548;2023-03-23T01:23:20;10.80;95.50
72865;DHT22;61000;48.120;11.548;2023-03-23T01:25:47;10.80;95.50
72865;DHT22;61000;48.120;11.548;2023-03-23T01:28:15;10.80;95.60
72865;DHT22;61000;48.120;11.548;2023-03-23T01:30:41;10.80;95.80
72865;DHT22;61000;48.120;11.548;2023-03-23T01:33:08;10.90;95.80
72865;DHT22;61000;48.120;11.548;2023-03-23T01:35:38;10.90;95.90
72865;DHT22;61000;48.120;11.548;2023-03-23T01:38:05;10.80;95.70
72865;DHT22;61000;48.120;11.548;2023-03-23T01:40:32;10.80;95.70
72865;DHT22;61000;48.120;11.548;2023-03-23T01:42:59;10.80;95.80
72865;DHT22;61000;48.120;11.548;2023-03-23T01:45:30;10.80;95.70
72865;DHT22;61000;48.120;11.548;2023-03-23T01:48:10;10.80;95.70
72865;DHT22;61000;48.120;11.548;2023-03-23T01:50:48;10.80;95.90
72865;DHT22;61000;48.120;11.548;2023-03-23T01:53:19;10.80;95.80
72865;DHT22;61000;48.120;11.548;2023-03-23T01:55:49;10.80;95.90
72865;DHT22;61000;48.120;11.548;2023-03-23T01:58:21;10.80;95.90
72865;DHT22;61000;48.120;11.548;2023-03-23T02:00:51;10.70;95.90
72865;DHT22;61000;48.120;11.548;2023-03-23T02:03:20;10.80;96.00
72865;DHT22;61000;48.120;11.548;2023-03-23T02:05:50;10.70;96.00
72865;DHT22;61000;48.120;11.548;2023-03-23T02:08:32;10.80;95.90
72865;DHT22;61000;48.120;11.548;2023-03-23T02:11:01;10.70;96.00
72865;DHT22;61000;48.120;11.548;2023-03-23T02:13:28;10.80;96.10
72865;DHT22;61000;48.120;11.548;2023-03-23T02:16:05;10.70;96.00
72865;DHT22;61000;48.120;11.548;2023-03-23T02:18:51;10.70;96.10
72865;DHT22;61000;48.120;11.548;2023-03-23T02:27:08;10.70;96.20
72865;DHT22;61000;48.120;11.548;2023-03-23T02:30:09;10.70;96.30
72865;DHT22;61000;48.120;11.548;2023-03-23T02:35:40;10.70;96.30
72865;DHT22;61000;48.120;11.548;2023-03-23T02:38:13;10.70;96.50
72865;DHT22;61000;48.120;11.548;2023-03-23T02:40:45;10.70;96.70
72865;DHT22;61000;48.120;11.548;2023-03-23T02:43:16;10.70;96.60
72865;DHT22;61000;48.120;11.548;2023-03-23T02:45:45;10.60;96.70
72865;DHT22;61000;48.120;11.548;2023-03-23T02:48:14;10.60;96.90
72865;DHT22;61000;48.120;11.548;2023-03-23T02:50:45;10.60;96.80
72865;DHT22;61000;48.120;11.548;2023-03-23T02:53:16;10.60;96.80
72865;DHT22;61000;48.120;11.548;2023-03-23T02:55:46;10.50;96.80
72865;DHT22;61000;48.120;11.548;2023-03-23T02:58:17;10.50;96.80
72865;DHT22;61000;48.120;11.548;2023-03-23T03:00:44;10.50;97.00
72865;DHT22;61000;48.120;11.548;2023-03-23T03:03:17;10.50;97.10
72865;DHT22;61000;48.120;11.548;2023-03-23T03:05:53;10.50;97.00
72865;DHT22;61000;48.120;11.548;2023-03-23T03:08:26;10.50;97.10
72865;DHT22;61000;48.120;11.548;2023-03-23T03:11:00;10.50;97.20
72865;DHT22;61000;48.120;11.548;2023-03-23T03:13:35;10.40;97.20
72865;DHT22;61000;48.120;11.548;2023-03-23T03:16:11;10.40;97.20
72865;DHT22;61000;48.120;11.548;2023-03-23T03:18:43;10.40;97.20
72865;DHT22;61000;48.120;11.548;2023-03-23T03:21:14;10.40;97.20
72865;DHT22;61000;48.120;11.548;2023-03-23T03:23:45;10.40;97.40
72865;DHT22;61000;48.120;11.548;2023-03-23T03:26:15;10.40;97.30
72865;DHT22;61000;48.120;11.548;2023-03-23T03:28:54;10.40;97.30
72865;DHT22;61000;48.120;11.548;2023-03-23T03:31:23;10.30;97.20
72865;DHT22;61000;48.120;11.548;2023-03-23T03:33:53;10.30;97.30
72865;DHT22;61000;48.120;11.548;2023-03-23T03:36:26;10.30;97.30
72865;DHT22;61000;48.120;11.548;2023-03-23T03:38:54;10.30;97.50
72865;DHT22;61000;48.120;11.548;2023-03-23T03:41:23;10.30;97.60
72865;DHT22;61000;48.120;11.548;2023-03-23T03:43:50;10.30;97.50
72865;DHT22;61000;48.120;11.548;2023-03-23T03:46:17;10.20;97.50
72865;DHT22;61000;48.120;11.548;2023-03-23T03:48:44;10.20;97.50
72865;DHT22;61000;48.120;11.548;2023-03-23T03:51:11;10.10;97.60
72865;DHT22;61000;48.120;11.548;2023-03-23T03:53:43;10.10;97.70
72865;DHT22;61000;48.120;11.548;2023-03-23T03:56:10;10.10;97.80
72865;DHT22;61000;48.120;11.548;2023-03-23T03:58:44;10.10;97.90
72865;DHT22;61000;48.120;11.548;2023-03-23T04:01:38;10.10;97.80
72865;DHT22;61000;48.120;11.548;2023-03-23T04:04:05;10.10;97.80
72865;DHT22;61000;48.120;11.548;2023-03-23T04:06:35;10.10;97.80
72865;DHT22;61000;48.120;11.548;2023-03-23T04:09:05;10.10;97.80
72865;DHT22;61000;48.120;11.548;2023-03-23T04:11:34;10.10;97.60
72865;DHT22;61000;48.120;11.548;2023-03-23T04:14:20;10.10;97.60
72865;DHT22;61000;48.120;11.548;2023-03-23T04:16:47;10.20;97.70
72865;DHT22;61000;48.120;11.548;2023-03-23T04:19:17;10.10;97.60
72865;DHT22;61000;48.120;11.548;2023-03-23T04:21:44;10.10;97.60
72865;DHT22;61000;48.120;11.548;2023-03-23T04:24:16;10.10;97.60
72865;DHT22;61000;48.120;11.548;2023-03-23T04:26:47;10.10;97.60
72865;DHT22;61000;48.120;11.548;2023-03-23T04:29:22;10.10;97.60
72865;DHT22;61000;48.120;11.548;2023-03-23T04:32:11;10.10;97.70
72865;DHT22;61000;48.120;11.548;2023-03-23T04:34:43;10.10;97.70
72865;DHT22;61000;48.120;11.548;2023-03-23T04:37:10;10.10;97.80
72865;DHT22;61000;48.120;11.548;2023-03-23T04:39:40;10.10;97.80
72865;DHT22;61000;48.120;11.548;2023-03-23T04:42:11;10.10;97.80
72865;DHT22;61000;48.120;11.548;2023-03-23T04:45:07;10.10;97.80
72865;DHT22;61000;48.120;11.548;2023-03-23T04:47:37;10.10;97.80
72865;DHT22;61000;48.120;11.548;2023-03-23T04:50:17;10.10;97.80
72865;DHT22;61000;48.120;11.548;2023-03-23T04:52:44;10.10;97.90
72865;DHT22;61000;48.120;11.548;2023-03-23T04:55:15;10.10;97.90
72865;DHT22;61000;48.120;11.548;2023-03-23T04:57:46;10.10;97.80
72865;DHT22;61000;48.120;11.548;2023-03-23T05:00:34;10.20;97.80
72865;DHT22;61000;48.120;11.548;2023-03-23T05:03:02;10.10;97.80
72865;DHT22;61000;48.120;11.548;2023-03-23T05:05:31;10.20;97.80
72865;DHT22;61000;48.120;11.548;2023-03-23T05:08:04;10.20;97.80
72865;DHT22;61000;48.120;11.548;2023-03-23T05:10:36;10.20;97.80
72865;DHT22;61000;48.120;11.548;2023-03-23T05:13:07;10.20;97.80
72865;DHT22;61000;48.120;11.548;2023-03-23T05:15:34;10.20;97.90
72865;DHT22;61000;48.120;11.548;2023-03-23T05:18:03;10.20;97.90
72865;DHT22;61000;48.120;11.548;2023-03-23T05:20:32;10.20;97.90
72865;DHT22;61000;48.120;11.548;2023-03-23T05:23:04;10.10;97.90
72865;DHT22;61000;48.120;11.548;2023-03-23T05:25:36;10.10;97.90
72865;DHT22;61000;48.120;11.548;2023-03-23T05:28:17;10.10;97.90
72865;DHT22;61000;48.120;11.548;2023-03-23T05:30:58;10.20;97.90
72865;DHT22;61000;48.120;11.548;2023-03-23T05:33:29;10.20;98.00
72865;DHT22;61000;48.120;11.548;2023-03-23T05:36:15;10.20;98.00
72865;DHT22;61000;48.120;11.548;2023-03-23T05:38:59;10.20;98.00
72865;DHT22;61000;48.120;11.548;2023-03-23T05:41:43;10.20;98.00
72865;DHT22;61000;48.120;11.548;2023-03-23T05:44:10;10.20;98.00
72865;DHT22;61000;48.120;11.548;2023-03-23T05:46:47;10.20;97.90
72865;DHT22;61000;48.120;11.548;2023-03-23T05:49:15;10.20;98.00
72865;DHT22;61000;48.120;11.548;2023-03-23T05:51:43;10.20;97.90
72865;DHT22;61000;48.120;11.548;2023-03-23T05:54:11;10.30;97.90
72865;DHT22;61000;48.120;11.548;2023-03-23T05:56:40;10.30;97.90
72865;DHT22;61000;48.120;11.548;2023-03-23T05:59:24;10.30;97.80
72865;DHT22;61000;48.120;11.548;2023-03-23T06:01:53;10.30;97.80
72865;DHT22;61000;48.120;11.548;2023-03-23T06:04:21;10.20;97.90
72865;DHT22;61000;48.120;11.548;2023-03-23T06:07:01;10.20;98.00
72865;DHT22;61000;48.120;11.548;2023-03-23T06:09:29;10.20;98.10
72865;DHT22;61000;48.120;11.548;2023-03-23T06:12:21;10.10;98.20
72865;DHT22;61000;48.120;11.548;2023-03-23T06:15:10;10.10;98.30
72865;DHT22;61000;48.120;11.548;2023-03-23T06:18:10;10.10;98.30
72865;DHT22;61000;48.120;11.548;2023-03-23T06:21:03;10.10;98.50
72865;DHT22;61000;48.120;11.548;2023-03-23T06:24:04;10.10;98.40
72865;DHT22;61000;48.120;11.548;2023-03-23T06:26:33;10.10;98.40
72865;DHT22;61000;48.120;11.548;2023-03-23T06:29:05;10.10;98.40
72865;DHT22;61000;48.120;11.548;2023-03-23T06:31:39;10.20;98.50
72865;DHT22;61000;48.120;11.548;2023-03-23T06:34:07;10.20;98.30
72865;DHT22;61000;48.120;11.548;2023-03-23T06:37:03;10.20;98.20
72865;DHT22;61000;48.120;11.548;2023-03-23T06:39:56;10.30;98.20
72865;DHT22;61000;48.120;11.548;2023-03-23T06:42:29;10.40;98.20
72865;DHT22;61000;48.120;11.548;2023-03-23T06:45:21;10.50;97.90
72865;DHT22;61000;48.120;11.548;2023-03-23T06:47:54;10.60;97.70
72865;DHT22;61000;48.120;11.548;2023-03-23T06:50:21;10.60;97.70
72865;DHT22;61000;48.120;11.548;2023-03-23T06:52:49;10.60;97.60
72865;DHT22;61000;48.120;11.548;2023-03-23T06:55:18;10.70;97.60
72865;DHT22;61000;48.120;11.548;2023-03-23T06:57:45;10.70;97.50
72865;DHT22;61000;48.120;11.548;2023-03-23T07:00:13;10.70;97.50
72865;DHT22;61000;48.120;11.548;2023-03-23T07:02:42;10.70;97.40
72865;DHT22;61000;48.120;11.548;2023-03-23T07:05:12;10.80;97.30
72865;DHT22;61000;48.120;11.548;2023-03-23T07:07:40;10.80;97.30
72865;DHT22;61000;48.120;11.548;2023-03-23T07:10:21;10.90;97.40
72865;DHT22;61000;48.120;11.548;2023-03-23T07:12:48;11.00;97.10
72865;DHT22;61000;48.120;11.548;2023-03-23T07:15:16;11.10;97.00
72865;DHT22;61000;48.120;11.548;2023-03-23T07:17:47;11.10;96.90
72865;DHT22;61000;48.120;11.548;2023-03-23T07:20:22;11.20;96.80
72865;DHT22;61000;48.120;11.548;2023-03-23T07:22:49;11.30;96.50
72865;DHT22;61000;48.120;11.548;2023-03-23T07:25:36;11.40;96.50
72865;DHT22;61000;48.120;11.548;2023-03-23T07:28:03;11.50;96.20
72865;DHT22;61000;48.120;11.548;2023-03-23T07:30:30;11.60;96.00
72865;DHT22;61000;48.120;11.548;2023-03-23T07:32:58;11.80;95.80
72865;DHT22;61000;48.120;11.548;2023-03-23T07:35:26;11.90;95.90
72865;DHT22;61000;48.120;11.548;2023-03-23T07:38:00;12.10;95.60
72865;DHT22;61000;48.120;11.548;2023-03-23T07:40:28;12.30;94.80
72865;DHT22;61000;48.120;11.548;2023-03-23T07:43:03;12.60;94.40
72865;DHT22;61000;48.120;11.548;2023-03-23T07:45:52;12.80;94.10
72865;DHT22;61000;48.120;11.548;2023-03-23T07:48:22;13.00;93.60
72865;DHT22;61000;48.120;11.548;2023-03-23T07:50:53;13.10;93.20
72865;DHT22;61000;48.120;11.548;2023-03-23T07:53:20;13.30;93.20
72865;DHT22;61000;48.120;11.548;2023-03-23T07:55:55;13.40;92.90
72865;DHT22;61000;48.120;11.548;2023-03-23T07:58:34;13.40;92.60
72865;DHT22;61000;48.120;11.548;2023-03-23T08:01:02;13.50;92.50
72865;DHT22;61000;48.120;11.548;2023-03-23T08:03:31;13.60;92.30
72865;DHT22;61000;48.120;11.548;2023-03-23T08:06:18;13.60;92.10
72865;DHT22;61000;48.120;11.548;2023-03-23T08:09:00;13.70;92.00
72865;DHT22;61000;48.120;11.548;2023-03-23T08:12:00;13.60;91.70
72865;DHT22;61000;48.120;11.548;2023-03-23T08:15:06;13.60;91.70
72865;DHT22;61000;48.120;11.548;2023-03-23T08:17:49;13.70;92.00
72865;DHT22;61000;48.120;11.548;2023-03-23T08:20:37;13.70;91.50
72865;DHT22;61000;48.120;11.548;2023-03-23T08:23:24;13.80;91.50
72865;DHT22;61000;48.120;11.548;2023-03-23T08:26:09;13.80;91.40
72865;DHT22;61000;48.120;11.548;2023-03-23T08:28:54;13.90;91.20
72865;DHT22;61000;48.120;11.548;2023-03-23T08:31:40;13.90;91.30
72865;DHT22;61000;48.120;11.548;2023-03-23T08:34:19;13.90;91.40
72865;DHT22;61000;48.120;11.548;2023-03-23T08:37:03;13.90;90.90
72865;DHT22;61000;48.120;11.548;2023-03-23T08:39:52;14.00;90.80
72865;DHT22;61000;48.120;11.548;2023-03-23T08:42:31;14.10;90.80
72865;DHT22;61000;48.120;11.548;2023-03-23T08:45:13;14.10;90.50
72865;DHT22;61000;48.120;11.548;2023-03-23T08:48:12;14.20;90.40
72865;DHT22;61000;48.120;11.548;2023-03-23T08:50:55;14.30;90.30
72865;DHT22;61000;48.120;11.548;2023-03-23T08:53:45;14.40;90.20
72865;DHT22;61000;48.120;11.548;2023-03-23T08:56:33;14.50;90.30
72865;DHT22;61000;48.120;11.548;2023-03-23T08:59:19;14.70;89.80
72865;DHT22;61000;48.120;11.548;2023-03-23T09:02:02;14.80;89.70
72865;DHT22;61000;48.120;11.548;2023-03-23T09:04:45;15.00;87.80
72865;DHT22;61000;48.120;11.548;2023-03-23T09:07:39;15.20;87.10
72865;DHT22;61000;48.120;11.548;2023-03-23T09:10:08;15.30;85.70
72865;DHT22;61000;48.120;11.548;2023-03-23T09:12:36;15.60;84.50
72865;DHT22;61000;48.120;11.548;2023-03-23T09:15:04;15.80;83.60
72865;DHT22;61000;48.120;11.548;2023-03-23T09:17:35;16.00;83.70
72865;DHT22;61000;48.120;11.548;2023-03-23T09:20:03;16.10;82.20
72865;DHT22;61000;48.120;11.548;2023-03-23T09:22:36;16.10;81.50
72865;DHT22;61000;48.120;11.548;2023-03-23T09:25:05;16.20;81.50
72865;DHT22;61000;48.120;11.548;2023-03-23T09:27:32;16.40;82.60
72865;DHT22;61000;48.120;11.548;2023-03-23T09:30:00;16.40;81.10
72865;DHT22;61000;48.120;11.548;2023-03-23T09:32:27;16.30;81.00
72865;DHT22;61000;48.120;11.548;2023-03-23T09:34:54;16.40;80.90
72865;DHT22;61000;48.120;11.548;2023-03-23T09:37:21;16.50;81.00
72865;DHT22;61000;48.120;11.548;2023-03-23T09:39:48;16.60;81.50
72865;DHT22;61000;48.120;11.548;2023-03-23T09:42:31;16.60;80.10
72865;DHT22;61000;48.120;11.548;2023-03-23T09:45:13;16.70;81.20
72865;DHT22;61000;48.120;11.548;2023-03-23T09:47:46;16.80;80.30
72865;DHT22;61000;48.120;11.548;2023-03-23T09:50:17;16.80;79.80
72865;DHT22;61000;48.120;11.548;2023-03-23T09:52:49;16.90;78.70
72865;DHT22;61000;48.120;11.548;2023-03-23T09:55:18;16.90;78.20
72865;DHT22;61000;48.120;11.548;2023-03-23T09:57:51;17.00;78.10
72865;DHT22;61000;48.120;11.548;2023-03-23T10:00:23;17.20;78.30
72865;DHT22;61000;48.120;11.548;2023-03-23T10:02:57;17.40;77.70
72865;DHT22;61000;48.120;11.548;2023-03-23T10:05:32;17.50;76.10
72865;DHT22;61000;48.120;11.548;2023-03-23T10:08:01;17.70;75.90
72865;DHT22;61000;48.120;11.548;2023-03-23T10:10:36;17.90;74.10
72865;DHT22;61000;48.120;11.548;2023-03-23T10:13:12;18.10;73.30
72865;DHT22;61000;48.120;11.548;2023-03-23T10:15:43;18.20;72.60
72865;DHT22;61000;48.120;11.548;2023-03-23T10:18:15;18.10;72.00
72865;DHT22;61000;48.120;11.548;2023-03-23T10:20:48;17.80;72.80
72865;DHT22;61000;48.120;11.548;2023-03-23T10:23:38;17.70;72.20
72865;DHT22;61000;48.120;11.548;2023-03-23T10:26:14;17.50;72.50
72865;DHT22;61000;48.120;11.548;2023-03-23T10:28:47;17.40;73.60
72865;DHT22;61000;48.120;11.548;2023-03-23T10:31:20;17.30;74.10
72865;DHT22;61000;48.120;11.548;2023-03-23T10:33:50;17.30;74.60
72865;DHT22;61000;48.120;11.548;2023-03-23T10:36:21;17.20;74.50
72865;DHT22;61000;48.120;11.548;2023-03-23T10:38:54;17.10;75.60
72865;DHT22;61000;48.120;11.548;2023-03-23T10:41:23;17.20;75.40
72865;DHT22;61000;48.120;11.548;2023-03-23T10:43:49;17.20;74.80
72865;DHT22;61000;48.120;11.548;2023-03-23T10:46:31;17.20;75.50
72865;DHT22;61000;48.120;11.548;2023-03-23T10:49:04;17.30;75.30
72865;DHT22;61000;48.120;11.548;2023-03-23T10:51:35;17.40;74.40
72865;DHT22;61000;48.120;11.548;2023-03-23T10:54:04;17.40;73.70
72865;DHT22;61000;48.120;11.548;2023-03-23T10:56:36;17.50;73.30
72865;DHT22;61000;48.120;11.548;2023-03-23T10:59:13;17.60;73.50
72865;DHT22;61000;48.120;11.548;2023-03-23T11:01:44;17.60;72.30
72865;DHT22;61000;48.120;11.548;2023-03-23T11:04:14;17.70;71.80
72865;DHT22;61000;48.120;11.548;2023-03-23T11:06:45;17.60;69.80
72865;DHT22;61000;48.120;11.548;2023-03-23T11:09:15;17.60;68.50
72865;DHT22;61000;48.120;11.548;2023-03-23T11:11:48;17.60;68.10
72865;DHT22;61000;48.120;11.548;2023-03-23T11:14:17;17.50;67.50
72865;DHT22;61000;48.120;11.548;2023-03-23T11:16:50;17.60;67.80
72865;DHT22;61000;48.120;11.548;2023-03-23T11:19:22;17.60;68.00
72865;DHT22;61000;48.120;11.548;2023-03-23T11:21:51;17.60;68.10
72865;DHT22;61000;48.120;11.548;2023-03-23T11:24:22;17.60;68.20
72865;DHT22;61000;48.120;11.548;2023-03-23T11:26:50;17.70;68.70
72865;DHT22;61000;48.120;11.548;2023-03-23T11:29:19;17.80;68.30
72865;DHT22;61000;48.120;11.548;2023-03-23T11:31:51;17.90;68.00
72865;DHT22;61000;48.120;11.548;2023-03-23T11:34:22;18.00;68.50
72865;DHT22;61000;48.120;11.548;2023-03-23T11:36:52;18.00;67.30
72865;DHT22;61000;48.120;11.548;2023-03-23T11:39:22;18.00;67.50
72865;DHT22;61000;48.120;11.548;2023-03-23T11:41:49;18.10;67.20
72865;DHT22;61000;48.120;11.548;2023-03-23T11:44:17;18.10;67.40
72865;DHT22;61000;48.120;11.548;2023-03-23T11:46:51;18.20;67.40
72865;DHT22;61000;48.120;11.548;2023-03-23T11:49:29;18.20;66.60
72865;DHT22;61000;48.120;11.548;2023-03-23T11:52:02;18.20;66.30
72865;DHT22;61000;48.120;11.548;2023-03-23T11:54:34;18.40;66.70
72865;DHT22;61000;48.120;11.548;2023-03-23T11:57:01;18.40;66.10
72865;DHT22;61000;48.120;11.548;2023-03-23T11:59:31;18.40;65.60
72865;DHT22;61000;48.120;11.548;2023-03-23T12:04:57;18.50;65.80
72865;DHT22;61000;48.120;11.548;2023-03-23T12:07:47;18.50;66.20
72865;DHT22;61000;48.120;11.548;2023-03-23T12:10:25;18.60;65.00
72865;DHT22;61000;48.120;11.548;2023-03-23T12:13:02;18.60;66.10
72865;DHT22;61000;48.120;11.548;2023-03-23T12:15:40;18.50;65.00
72865;DHT22;61000;48.120;11.548;2023-03-23T12:18:17;18.60;66.00
72865;DHT22;61000;48.120;11.548;2023-03-23T12:20:57;18.70;64.80
72865;DHT22;61000;48.120;11.548;2023-03-23T12:23:28;18.90;64.30
72865;DHT22;61000;48.120;11.548;2023-03-23T12:26:10;19.10;67.80
72865;DHT22;61000;48.120;11.548;2023-03-23T12:28:50;19.10;66.20
72865;DHT22;61000;48.120;11.548;2023-03-23T12:31:23;19.10;64.30
72865;DHT22;61000;48.120;11.548;2023-03-23T12:34:00;19.10;64.20
72865;DHT22;61000;48.120;11.548;2023-03-23T12:36:40;18.90;62.70
72865;DHT22;61000;48.120;11.548;2023-03-23T12:39:30;18.90;62.30
72865;DHT22;61000;48.120;11.548;2023-03-23T12:42:04;19.00;62.70
72865;DHT22;61000;48.120;11.548;2023-03-23T12:44:38;19.00;62.00
72865;DHT22;61000;48.120;11.548;2023-03-23T12:47:19;18.90;61.60
72865;DHT22;61000;48.120;11.548;2023-03-23T12:49:54;18.80;61.80
72865;DHT22;61000;48.120;11.548;2023-03-23T12:52:26;18.80;61.60
72865;DHT22;61000;48.120;11.548;2023-03-23T12:54:59;18.70;62.60
72865;DHT22;61000;48.120;11.548;2023-03-23T12:57:32;18.70;61.50
72865;DHT22;61000;48.120;11.548;2023-03-23T13:00:06;18.70;61.40
72865;DHT22;61000;48.120;11.548;2023-03-23T13:02:41;18.70;61.70
72865;DHT22;61000;48.120;11.548;2023-03-23T13:05:13;18.80;60.60
72865;DHT22;61000;48.120;11.548;2023-03-23T13:07:45;18.80;60.00
72865;DHT22;61000;48.120;11.548;2023-03-23T13:10:18;18.60;58.70
72865;DHT22;61000;48.120;11.548;2023-03-23T13:12:47;18.70;58.70
72865;DHT22;61000;48.120;11.548;2023-03-23T13:15:27;18.60;58.70
72865;DHT22;61000;48.120;11.548;2023-03-23T13:18:08;18.60;58.60
72865;DHT22;61000;48.120;11.548;2023-03-23T13:20:47;18.60;58.90
72865;DHT22;61000;48.120;11.548;2023-03-23T13:23:19;18.50;58.90
72865;DHT22;61000;48.120;11.548;2023-03-23T13:25:54;18.40;58.80
72865;DHT22;61000;48.120;11.548;2023-03-23T13:28:24;18.20;59.10
72865;DHT22;61000;48.120;11.548;2023-03-23T13:30:59;18.20;59.20
72865;DHT22;61000;48.120;11.548;2023-03-23T13:33:30;18.20;59.50
72865;DHT22;61000;48.120;11.548;2023-03-23T13:36:05;18.20;59.70
72865;DHT22;61000;48.120;11.548;2023-03-23T13:38:35;18.20;59.80
72865;DHT22;61000;48.120;11.548;2023-03-23T13:41:11;18.20;59.70
72865;DHT22;61000;48.120;11.548;2023-03-23T13:43:40;18.30;59.80
72865;DHT22;61000;48.120;11.548;2023-03-23T13:46:12;18.30;60.50
72865;DHT22;61000;48.120;11.548;2023-03-23T13:48:42;18.30;62.10
72865;DHT22;61000;48.120;11.548;2023-03-23T13:51:31;18.30;62.30
72865;DHT22;61000;48.120;11.548;2023-03-23T13:54:29;18.20;62.50
72865;DHT22;61000;48.120;11.548;2023-03-23T13:56:58;18.20;62.50
72865;DHT22;61000;48.120;11.548;2023-03-23T13:59:34;18.30;63.20
72865;DHT22;61000;48.120;11.548;2023-03-23T14:02:26;18.20;64.60
72865;DHT22;61000;48.120;11.548;2023-03-23T14:04:54;18.30;65.30
72865;DHT22;61000;48.120;11.548;2023-03-23T14:07:23;18.40;65.30
72865;DHT22;61000;48.120;11.548;2023-03-23T14:09:50;18.40;65.40
72865;DHT22;61000;48.120;11.548;2023-03-23T14:12:19;18.40;65.50
72865;DHT22;61000;48.120;11.548;2023-03-23T14:14:49;18.20;65.50
72865;DHT22;61000;48.120;11.548;2023-03-23T14:17:18;18.20;66.20
72865;DHT22;61000;48.120;11.548;2023-03-23T14:19:48;18.20;66.70
72865;DHT22;61000;48.120;11.548;2023-03-23T14:22:21;18.10;66.00
72865;DHT22;61000;48.120;11.548;2023-03-23T14:24:58;18.00;65.50
72865;DHT22;61000;48.120;11.548;2023-03-23T14:27:26;17.90;65.30
72865;DHT22;61000;48.120;11.548;2023-03-23T14:29:58;17.80;65.20
72865;DHT22;61000;48.120;11.548;2023-03-23T14:32:28;17.80;65.30
72865;DHT22;61000;48.120;11.548;2023-03-23T14:34:57;17.70;65.70
72865;DHT22;61000;48.120;11.548;2023-03-23T14:37:24;17.70;65.90
72865;DHT22;61000;48.120;11.548;2023-03-23T14:39:54;17.70;66.10
72865;DHT22;61000;48.120;11.548;2023-03-23T14:42:26;17.70;66.00
72865;DHT22;61000;48.120;11.548;2023-03-23T14:44:53;17.70;66.10
72865;DHT22;61000;48.120;11.548;2023-03-23T14:47:23;17.70;66.20
72865;DHT22;61000;48.120;11.548;2023-03-23T14:49:53;17.80;66.70
72865;DHT22;61000;48.120;11.548;2023-03-23T14:52:22;17.80;66.70
72865;DHT22;61000;48.120;11.548;2023-03-23T14:54:49;17.80;66.80
72865;DHT22;61000;48.120;11.548;2023-03-23T14:57:19;17.70;67.00
72865;DHT22;61000;48.120;11.548;2023-03-23T14:59:47;17.70;67.10
72865;DHT22;61000;48.120;11.548;2023-03-23T15:02:17;17.70;67.40
72865;DHT22;61000;48.120;11.548;2023-03-23T15:04:47;17.50;67.70
72865;DHT22;61000;48.120;11.548;2023-03-23T15:07:15;17.60;68.60
72865;DHT22;61000;48.120;11.548;2023-03-23T15:09:45;17.40;68.20
72865;DHT22;61000;48.120;11.548;2023-03-23T15:12:23;17.40;68.50
72865;DHT22;61000;48.120;11.548;2023-03-23T15:14:53;17.30;68.80
72865;DHT22;61000;48.120;11.548;2023-03-23T15:17:22;17.30;69.00
72865;DHT22;61000;48.120;11.548;2023-03-23T15:19:50;17.40;69.20
72865;DHT22;61000;48.120;11.548;2023-03-23T15:22:20;17.40;69.10
72865;DHT22;61000;48.120;11.548;2023-03-23T15:24:48;17.40;69.40
72865;DHT22;61000;48.120;11.548;2023-03-23T15:27:27;17.40;69.20
72865;DHT22;61000;48.120;11.548;2023-03-23T15:29:56;17.40;69.20
72865;DHT22;61000;48.120;11.548;2023-03-23T15:32:26;17.40;69.50
72865;DHT22;61000;48.120;11.548;2023-03-23T15:34:53;17.40;70.20
72865;DHT22;61000;48.120;11.548;2023-03-23T15:37:24;17.30;70.30
72865;DHT22;61000;48.120;11.548;2023-03-23T15:39:52;17.30;70.80
72865;DHT22;61000;48.120;11.548;2023-03-23T15:42:22;17.20;71.30
72865;DHT22;61000;48.120;11.548;2023-03-23T15:45:16;17.10;71.40
72865;DHT22;61000;48.120;11.548;2023-03-23T15:47:48;17.10;71.90
72865;DHT22;61000;48.120;11.548;2023-03-23T15:50:17;17.00;72.70
72865;DHT22;61000;48.120;11.548;2023-03-23T15:52:45;17.00;73.50
72865;DHT22;61000;48.120;11.548;2023-03-23T15:55:22;17.00;73.50
72865;DHT22;61000;48.120;11.548;2023-03-23T15:57:49;16.90;73.30
72865;DHT22;61000;48.120;11.548;2023-03-23T16:00:20;16.90;73.60
72865;DHT22;61000;48.120;11.548;2023-03-23T16:02:51;16.80;73.30
72865;DHT22;61000;48.120;11.548;2023-03-23T16:05:19;16.80;73.60